Ault, Minnesota
Current Conditions -  °F | °C
As of 8:54 AM on Friday 28 Nov 2014 (Local Time) from KTWM Reporting Station
Light Snow Light Snow  
Wind Chill: 14°   Ceiling: 1000
Heat Index: 14°   Visibility: 0.75mi
Dew Point:   Wind: 0mph
Humidity: 79%   Direction: NA
Pressure: 30.03"   Gusts: NA
Location:  47.3998°N, 91.9141°W
Report Text: KTWM 281454Z AUTO 00000KT 3/4SM -SN OVC010 M10/M13 A3003 RMK AO2
Loading
Personal Weather Stations






























Interactive Weather Map New forecast layout! Learn more

10-Day Weather Forecast

Advertisements
Track Severe Weather on mobile